Time;durP1;ratioP1;P1;durP2;ratioP2;P2;SDS_P1;SDS_P2;PMS_P1;PMS_P2;Temp;Humidity;BMP_temperature;BMP_pressure;BME280_temperature;BME280_humidity;BME280_pressure;Samples;Min_cycle;Max_cycle;Signal;HPM_P1;HPM_P2
2023/08/07 00:02:01;;;;;;;8.45;7.35;;;13.30;99.90;;;;;;4982884;28;20261;-82
2023/08/07 00:04:28;;;;;;;7.45;6.85;;;13.30;99.90;;;;;;4987769;28;20199;-82
2023/08/07 00:06:55;;;;;;;11.30;7.43;;;13.40;99.90;;;;;;4982680;28;20294;-82
2023/08/07 00:09:22;;;;;;;7.47;6.80;;;13.30;99.90;;;;;;4984439;28;20273;-80
2023/08/07 00:11:49;;;;;;;7.40;6.80;;;13.30;99.90;;;;;;4989741;28;20230;-82
2023/08/07 00:14:16;;;;;;;7.82;5.68;;;13.30;99.90;;;;;;4984322;28;20275;-82
2023/08/07 00:16:43;;;;;;;6.40;5.90;;;13.40;99.90;;;;;;4984114;28;20270;-83
2023/08/07 00:19:11;;;;;;;7.07;6.53;;;13.40;99.90;;;;;;4991578;28;20262;-82
2023/08/07 00:21:38;;;;;;;6.22;5.63;;;13.40;99.90;;;;;;4989699;28;20487;-81
2023/08/07 00:24:06;;;;;;;5.65;5.10;;;13.30;99.90;;;;;;4984615;28;20210;-81
2023/08/07 00:26:33;;;;;;;6.00;5.50;;;13.30;99.90;;;;;;4982834;28;20437;-81
2023/08/07 00:29:00;;;;;;;5.93;5.32;;;13.20;99.90;;;;;;4983521;28;20375;-80
2023/08/07 00:31:30;;;;;;;7.03;6.45;;;13.40;99.90;;;;;;4983731;28;20225;-82
2023/08/07 00:33:59;;;;;;;5.90;5.40;;;13.40;99.90;;;;;;4983281;28;20561;-80
2023/08/07 00:36:28;;;;;;;5.32;4.93;;;13.30;99.90;;;;;;4983788;28;20469;-80
2023/08/07 00:38:55;;;;;;;6.03;5.53;;;13.20;99.90;;;;;;4983396;28;20208;-79
2023/08/07 00:41:23;;;;;;;10.02;5.25;;;13.30;99.90;;;;;;4982621;28;20205;-81
2023/08/07 00:43:50;;;;;;;5.93;5.32;;;13.30;99.90;;;;;;4982059;28;20210;-80
2023/08/07 00:46:17;;;;;;;6.30;5.82;;;13.30;99.90;;;;;;4982882;28;20268;-80
2023/08/07 00:48:45;;;;;;;5.80;5.30;;;13.30;99.90;;;;;;4982504;28;20198;-80
2023/08/07 00:51:13;;;;;;;5.85;5.30;;;13.40;99.90;;;;;;4983079;28;20206;-81
2023/08/07 00:53:40;;;;;;;6.03;5.50;;;13.30;99.90;;;;;;4982860;28;20574;-80
2023/08/07 00:56:07;;;;;;;6.40;5.63;;;13.30;99.90;;;;;;4982923;28;20269;-80
2023/08/07 00:58:36;;;;;;;6.03;5.53;;;13.30;99.90;;;;;;4983189;28;20514;-80
2023/08/07 01:01:03;;;;;;;6.93;5.97;;;13.30;99.90;;;;;;4981967;28;20210;-80
2023/08/07 01:03:30;;;;;;;6.18;5.72;;;13.30;99.90;;;;;;4983171;28;20205;-81
2023/08/07 01:05:56;;;;;;;6.05;5.55;;;13.30;99.90;;;;;;4982808;28;20234;-81
2023/08/07 01:08:24;;;;;;;6.53;6.03;;;13.20;99.90;;;;;;4983021;28;20274;-80
2023/08/07 01:11:30;;;;;;;7.10;6.50;;;13.30;99.90;;;;;;4982773;28;20234;-80
2023/08/07 01:14:08;;;;;;;6.68;6.03;;;13.30;99.90;;;;;;4968906;28;20274;-80
2023/08/07 01:16:47;;;;;;;7.93;6.10;;;13.30;99.90;;;;;;4962059;28;20271;-80
2023/08/07 01:19:28;;;;;;;6.45;5.88;;;13.30;99.90;;;;;;4967532;28;20206;-81
2023/08/07 01:22:14;;;;;;;17.27;7.60;;;13.30;99.90;;;;;;4982407;28;20540;-80
2023/08/07 01:24:46;;;;;;;6.78;6.13;;;13.30;99.90;;;;;;4982970;28;20210;-79
2023/08/07 01:27:19;;;;;;;6.72;6.03;;;13.30;99.90;;;;;;4982285;28;20284;-80
2023/08/07 01:29:55;;;;;;;6.63;6.13;;;13.20;99.90;;;;;;4984381;28;20202;-80
2023/08/07 01:32:28;;;;;;;5.47;5.07;;;13.20;99.90;;;;;;4982583;28;20199;-81
2023/08/07 01:34:57;;;;;;;6.70;6.10;;;13.20;99.90;;;;;;4982511;28;20202;-81
2023/08/07 01:37:28;;;;;;;6.10;5.60;;;13.10;99.90;;;;;;4982425;28;20234;-80
2023/08/07 01:40:00;;;;;;;6.97;6.38;;;13.20;99.90;;;;;;4981900;28;20286;-79
2023/08/07 01:42:27;;;;;;;6.90;6.30;;;13.20;99.90;;;;;;4984693;28;20261;-79
2023/08/07 01:44:54;;;;;;;8.65;6.85;;;13.30;99.90;;;;;;4982973;28;20202;-79
2023/08/07 01:47:21;;;;;;;6.88;6.32;;;13.10;99.90;;;;;;4991411;28;20250;-80
2023/08/07 01:49:48;;;;;;;6.97;6.30;;;13.10;99.90;;;;;;4990379;28;20240;-80
2023/08/07 01:52:16;;;;;;;9.23;6.50;;;13.10;99.90;;;;;;4982858;28;20269;-80
2023/08/07 01:54:43;;;;;;;6.80;6.20;;;13.20;99.90;;;;;;4986087;28;20202;-79
2023/08/07 01:57:10;;;;;;;7.72;7.05;;;13.10;99.90;;;;;;4992327;28;20212;-82
2023/08/07 01:59:37;;;;;;;6.88;6.22;;;13.10;99.90;;;;;;4985283;28;20237;-81
2023/08/07 02:02:04;;;;;;;7.07;6.38;;;13.00;99.90;;;;;;4982068;28;20203;-81
2023/08/07 02:04:32;;;;;;;7.38;6.57;;;13.00;99.90;;;;;;4982779;28;20253;-81
2023/08/07 02:06:58;;;;;;;6.75;6.15;;;13.00;99.90;;;;;;4993446;28;20218;-80
2023/08/07 02:09:25;;;;;;;8.00;6.32;;;13.00;99.90;;;;;;4985067;28;20218;-80
2023/08/07 02:11:52;;;;;;;6.18;5.63;;;13.00;99.90;;;;;;4985897;28;20265;-79
2023/08/07 02:14:19;;;;;;;6.97;6.28;;;12.90;99.90;;;;;;4978339;28;20199;-79
2023/08/07 02:16:47;;;;;;;7.68;7.03;;;13.00;99.90;;;;;;4985953;28;20279;-80
2023/08/07 02:19:14;;;;;;;7.38;6.70;;;13.00;99.90;;;;;;4985620;28;20328;-80
2023/08/07 02:21:41;;;;;;;7.35;6.65;;;13.00;99.90;;;;;;4984706;28;20198;-80
2023/08/07 02:24:07;;;;;;;7.70;7.00;;;13.10;99.90;;;;;;4987411;28;20217;-79
2023/08/07 02:26:34;;;;;;;6.40;5.80;;;13.10;99.90;;;;;;4985950;28;20249;-80
2023/08/07 02:29:03;;;;;;;8.40;6.03;;;13.10;99.90;;;;;;4985467;28;20236;-79
2023/08/07 02:31:30;;;;;;;8.63;6.10;;;13.20;99.90;;;;;;4978188;28;20204;-78
2023/08/07 02:33:58;;;;;;;6.90;6.20;;;13.10;99.90;;;;;;4993997;28;20209;-80
2023/08/07 02:36:24;;;;;;;6.55;6.05;;;13.20;99.90;;;;;;4987614;28;20226;-80
2023/08/07 02:38:52;;;;;;;7.28;6.60;;;13.20;99.90;;;;;;4987433;28;20230;-79
2023/08/07 02:41:18;;;;;;;6.75;6.05;;;13.30;99.90;;;;;;4985221;28;20205;-79
2023/08/07 02:43:46;;;;;;;6.70;6.10;;;13.30;99.90;;;;;;4985515;28;20233;-79
2023/08/07 02:46:13;;;;;;;6.15;5.65;;;13.30;99.90;;;;;;4981424;28;20234;-81
2023/08/07 02:48:40;;;;;;;6.20;5.65;;;13.40;99.90;;;;;;4985356;28;20198;-82
2023/08/07 02:51:07;;;;;;;6.57;5.97;;;13.40;99.90;;;;;;4982236;28;20214;-82
2023/08/07 02:53:34;;;;;;;7.25;6.55;;;13.40;99.90;;;;;;4985453;28;20486;-80
2023/08/07 02:56:01;;;;;;;8.18;6.63;;;13.30;99.90;;;;;;4984799;28;20257;-81
2023/08/07 02:58:28;;;;;;;7.78;7.07;;;13.50;99.90;;;;;;4985254;28;20198;-81
2023/08/07 03:00:55;;;;;;;7.80;6.43;;;13.50;99.90;;;;;;4985076;28;20402;-80
2023/08/07 03:03:22;;;;;;;6.78;6.28;;;13.50;99.90;;;;;;4984836;28;20203;-81
2023/08/07 03:05:50;;;;;;;7.00;6.50;;;13.50;99.90;;;;;;4982780;28;20238;-80
2023/08/07 03:08:17;;;;;;;8.10;7.32;;;13.50;99.90;;;;;;4984075;28;20266;-81
2023/08/07 03:10:55;;;;;;;7.53;6.78;;;13.60;99.90;;;;;;4984737;28;20265;-80
2023/08/07 03:13:23;;;;;;;8.70;7.80;;;13.60;99.90;;;;;;4983240;28;20205;-80
2023/08/07 03:15:58;;;;;;;6.95;6.45;;;13.60;99.90;;;;;;4983858;28;20507;-78
2023/08/07 03:18:25;;;;;;;8.05;6.88;;;13.60;99.90;;;;;;4984626;28;20245;-79
2023/08/07 03:20:52;;;;;;;7.82;7.03;;;13.70;99.90;;;;;;4984329;28;20202;-80
2023/08/07 03:23:19;;;;;;;8.48;7.78;;;13.60;99.90;;;;;;4983626;28;20438;-80
2023/08/07 03:25:46;;;;;;;7.95;7.25;;;13.70;99.90;;;;;;4984362;28;20245;-80
2023/08/07 03:28:13;;;;;;;7.57;6.97;;;13.80;99.90;;;;;;4983802;28;20541;-81
2023/08/07 03:30:40;;;;;;;9.45;8.65;;;13.60;99.90;;;;;;4984565;28;20490;-80
2023/08/07 03:33:07;;;;;;;8.98;8.23;;;13.80;99.90;;;;;;4988586;28;20244;-81
2023/08/07 03:35:34;;;;;;;8.80;7.32;;;13.80;99.90;;;;;;4984402;28;20265;-79
2023/08/07 03:38:01;;;;;;;7.85;7.25;;;13.80;99.90;;;;;;4983854;28;20415;-80
2023/08/07 03:40:28;;;;;;;9.48;8.57;;;13.80;99.90;;;;;;4983167;28;20206;-80
2023/08/07 03:42:55;;;;;;;8.00;7.40;;;13.80;99.90;;;;;;4983976;28;20265;-79
2023/08/07 03:45:22;;;;;;;7.73;7.10;;;13.90;99.90;;;;;;4984096;28;20499;-80
2023/08/07 03:47:49;;;;;;;9.77;8.70;;;13.90;99.90;;;;;;4984302;28;20664;-79
2023/08/07 03:50:16;;;;;;;8.23;7.57;;;13.80;99.90;;;;;;4984023;28;20245;-81
2023/08/07 03:52:43;;;;;;;7.43;6.80;;;13.90;99.90;;;;;;4984043;28;20782;-80
2023/08/07 03:55:10;;;;;;;8.20;7.60;;;13.90;99.90;;;;;;4989653;28;20202;-80
2023/08/07 03:57:36;;;;;;;8.23;7.53;;;13.90;99.90;;;;;;4984433;28;20534;-80
2023/08/07 04:00:04;;;;;;;7.93;6.87;;;13.90;99.90;;;;;;4983894;28;20242;-81
2023/08/07 04:02:31;;;;;;;8.80;7.90;;;13.90;99.90;;;;;;4983346;28;20437;-81
2023/08/07 04:04:58;;;;;;;9.40;8.70;;;14.00;99.90;;;;;;4983065;28;20521;-81
2023/08/07 04:07:25;;;;;;;9.07;8.30;;;14.00;99.90;;;;;;4985297;28;20203;-79
2023/08/07 04:09:53;;;;;;;9.23;8.52;;;14.00;99.90;;;;;;4990415;28;20443;-79
2023/08/07 04:12:20;;;;;;;10.83;9.80;;;14.00;99.90;;;;;;4985381;28;20445;-79
2023/08/07 04:14:47;;;;;;;13.77;8.88;;;14.00;99.90;;;;;;4983554;28;20674;-80
2023/08/07 04:17:14;;;;;;;9.47;8.77;;;14.00;99.90;;;;;;4986978;28;20597;-80
2023/08/07 04:19:41;;;;;;;10.30;9.30;;;14.10;99.90;;;;;;4984043;28;20500;-79
2023/08/07 04:22:08;;;;;;;10.52;9.45;;;14.10;99.90;;;;;;4983625;28;20784;-79
2023/08/07 04:24:35;;;;;;;9.87;8.97;;;14.10;99.90;;;;;;4983748;28;20541;-81
2023/08/07 04:27:03;;;;;;;8.57;7.97;;;14.10;99.90;;;;;;4983439;28;20479;-79
2023/08/07 04:29:30;;;;;;;11.00;9.90;;;14.10;99.90;;;;;;4979858;28;20445;-80
2023/08/07 04:31:56;;;;;;;11.20;10.20;;;14.10;99.90;;;;;;4983728;28;20440;-80
2023/08/07 04:34:23;;;;;;;10.60;8.40;;;14.10;99.90;;;;;;4983528;28;20509;-79
2023/08/07 04:36:53;;;;;;;9.07;8.47;;;14.20;99.90;;;;;;4986142;28;20484;-80
2023/08/07 04:39:21;;;;;;;10.47;9.57;;;14.00;99.90;;;;;;4991001;28;20443;-81
2023/08/07 04:41:49;;;;;;;13.70;10.25;;;14.10;99.90;;;;;;4981193;28;20460;-78
2023/08/07 04:44:16;;;;;;;10.63;9.77;;;14.10;99.90;;;;;;4984721;28;20237;-80
2023/08/07 04:46:43;;;;;;;8.98;8.27;;;14.10;99.90;;;;;;4986366;28;20581;-79
2023/08/07 04:49:10;;;;;;;8.80;8.10;;;14.00;99.90;;;;;;4981093;28;20202;-80
2023/08/07 04:51:38;;;;;;;11.35;9.63;;;14.00;99.90;;;;;;4981768;28;20487;-80
2023/08/07 04:54:04;;;;;;;8.95;8.15;;;13.90;99.90;;;;;;4981475;28;20203;-79
2023/08/07 04:56:31;;;;;;;9.20;8.40;;;13.90;99.90;;;;;;4981469;28;20289;-78
2023/08/07 04:58:58;;;;;;;9.85;8.90;;;14.00;99.90;;;;;;4981154;28;20436;-78
2023/08/07 05:01:25;;;;;;;9.85;8.93;;;13.90;99.90;;;;;;4988236;28;20260;-79
2023/08/07 05:03:52;;;;;;;9.57;8.70;;;13.90;99.90;;;;;;4983518;28;20285;-79
2023/08/07 05:06:19;;;;;;;13.10;9.43;;;14.10;99.90;;;;;;4983977;28;20442;-80
2023/08/07 05:08:46;;;;;;;9.77;9.03;;;14.10;99.90;;;;;;4981851;28;20627;-78
2023/08/07 05:11:13;;;;;;;10.23;9.33;;;14.10;99.90;;;;;;4979031;28;20483;-78
2023/08/07 05:13:40;;;;;;;8.20;7.50;;;14.30;99.90;;;;;;4981045;28;20803;-80
2023/08/07 05:16:07;;;;;;;8.03;7.33;;;14.20;99.90;;;;;;4981662;28;20503;-79
2023/08/07 05:18:34;;;;;;;7.60;7.00;;;14.20;99.90;;;;;;4982337;28;20539;-79
2023/08/07 05:21:02;;;;;;;7.57;6.93;;;14.30;99.90;;;;;;4981262;28;20660;-80
2023/08/07 05:23:29;;;;;;;9.33;8.43;;;14.30;99.90;;;;;;4981025;28;20444;-79
2023/08/07 05:25:56;;;;;;;9.40;8.60;;;14.30;99.90;;;;;;4981686;28;20436;-79
2023/08/07 05:28:23;;;;;;;8.70;8.10;;;14.30;99.90;;;;;;4985988;28;20471;-79
2023/08/07 05:30:50;;;;;;;9.20;8.50;;;14.30;99.90;;;;;;4981926;28;20648;-78
2023/08/07 05:33:17;;;;;;;6.73;6.23;;;14.40;99.90;;;;;;4981008;28;20486;-79
2023/08/07 05:35:44;;;;;;;7.60;6.77;;;14.40;99.90;;;;;;4981081;28;20444;-78
2023/08/07 05:38:11;;;;;;;8.83;8.13;;;14.60;99.90;;;;;;4981506;28;20511;-78
2023/08/07 05:40:38;;;;;;;9.60;7.13;;;14.50;99.90;;;;;;4973723;28;20468;-79
2023/08/07 05:43:05;;;;;;;7.60;7.00;;;14.60;99.90;;;;;;4981300;28;20452;-78
2023/08/07 05:45:32;;;;;;;7.20;6.53;;;14.50;99.90;;;;;;4981564;28;20503;-80
2023/08/07 05:47:59;;;;;;;7.53;6.83;;;14.60;99.90;;;;;;4977508;28;20875;-78
2023/08/07 05:50:26;;;;;;;6.90;6.23;;;14.60;99.90;;;;;;4979633;28;20547;-78
2023/08/07 05:52:53;;;;;;;6.00;5.50;;;14.60;99.90;;;;;;4981788;28;20448;-78
2023/08/07 05:55:20;;;;;;;9.10;6.63;;;14.80;99.90;;;;;;4981232;28;20507;-78
2023/08/07 05:57:47;;;;;;;8.30;7.50;;;14.80;99.90;;;;;;4978342;28;20543;-79
2023/08/07 06:00:17;;;;;;;8.80;6.40;;;14.60;99.90;;;;;;4982793;28;20491;-77
2023/08/07 06:02:44;;;;;;;5.63;5.20;;;14.70;99.90;;;;;;4975903;28;20412;-80
2023/08/07 06:05:14;;;;;;;6.70;6.20;;;14.60;99.90;;;;;;4993648;28;20487;-79
2023/08/07 06:07:42;;;;;;;6.40;5.90;;;14.70;99.90;;;;;;4993255;28;20540;-80
2023/08/07 06:10:09;;;;;;;7.70;7.00;;;14.60;99.90;;;;;;4991228;28;20452;-80
2023/08/07 06:12:35;;;;;;;6.40;5.90;;;14.70;99.90;;;;;;4983274;28;20504;-80
2023/08/07 06:15:03;;;;;;;6.73;6.17;;;14.70;99.90;;;;;;4980947;28;20444;-79
2023/08/07 06:17:30;;;;;;;7.10;6.40;;;14.70;99.90;;;;;;4981658;28;20515;-79
2023/08/07 06:19:58;;;;;;;6.77;6.17;;;14.70;99.90;;;;;;4982246;28;20465;-81
2023/08/07 06:22:24;;;;;;;6.47;5.97;;;14.70;99.90;;;;;;4981311;28;20478;-79
2023/08/07 06:24:52;;;;;;;7.30;6.70;;;14.60;99.90;;;;;;4982220;28;20480;-81
2023/08/07 06:27:21;;;;;;;7.10;6.60;;;14.70;99.90;;;;;;4982350;28;20465;-80
2023/08/07 06:29:48;;;;;;;6.53;5.90;;;14.70;99.90;;;;;;4981556;28;20503;-78
2023/08/07 06:32:16;;;;;;;5.80;5.40;;;14.70;99.90;;;;;;4981903;28;20440;-78
2023/08/07 06:34:44;;;;;;;6.43;5.93;;;14.70;99.90;;;;;;4976179;28;20451;-78
2023/08/07 06:37:11;;;;;;;6.30;5.70;;;14.80;99.90;;;;;;4981494;28;20507;-79
2023/08/07 06:39:38;;;;;;;5.83;4.83;;;15.00;99.90;;;;;;4981232;28;20487;-79
2023/08/07 06:42:05;;;;;;;4.83;4.10;;;15.10;99.90;;;;;;4980928;28;20507;-78
2023/08/07 06:44:32;;;;;;;5.30;4.80;;;15.20;99.90;;;;;;4980971;28;20479;-80
2023/08/07 06:46:59;;;;;;;5.23;4.73;;;15.20;99.90;;;;;;4984107;28;20444;-80
2023/08/07 06:49:26;;;;;;;6.40;5.90;;;15.20;99.90;;;;;;4984182;28;20468;-82
2023/08/07 06:51:53;;;;;;;5.17;4.67;;;15.20;99.90;;;;;;4987118;28;20460;-79
2023/08/07 06:54:21;;;;;;;4.90;4.40;;;15.30;99.90;;;;;;4985329;28;20483;-78
2023/08/07 06:56:47;;;;;;;6.03;4.20;;;15.40;99.90;;;;;;4983610;28;20447;-79
2023/08/07 06:59:14;;;;;;;4.67;4.27;;;15.50;99.90;;;;;;4990270;28;20440;-79
2023/08/07 07:01:41;;;;;;;4.20;3.80;;;15.70;99.90;;;;;;4984428;28;20471;-79
2023/08/07 07:04:08;;;;;;;4.50;4.10;;;15.60;99.90;;;;;;4988302;28;20452;-78
2023/08/07 07:06:37;;;;;;;4.70;4.30;;;15.70;99.90;;;;;;4987644;28;20436;-79
2023/08/07 07:09:04;;;;;;;3.57;3.37;;;15.80;99.90;;;;;;4986391;28;20452;-80
2023/08/07 07:11:31;;;;;;;5.60;3.93;;;15.90;99.90;;;;;;4984263;28;20426;-82
2023/08/07 07:14:03;;;;;;;3.83;3.53;;;16.00;99.90;;;;;;4984804;28;20581;-84
2023/08/07 07:16:41;;;;;;;4.47;4.07;;;16.10;99.90;;;;;;4985870;28;20451;-83
2023/08/07 07:19:13;;;;;;;5.20;3.17;;;16.20;99.90;;;;;;4983833;28;20427;-81
2023/08/07 07:21:41;;;;;;;4.20;3.90;;;16.40;99.90;;;;;;4984233;28;20436;-80
2023/08/07 07:24:08;;;;;;;4.70;4.30;;;16.40;99.90;;;;;;4981976;28;20514;-80
2023/08/07 07:26:35;;;;;;;3.40;3.20;;;16.50;99.90;;;;;;4983629;28;20456;-81
2023/08/07 07:29:02;;;;;;;3.97;3.57;;;16.70;99.90;;;;;;4978214;28;20444;-81
2023/08/07 07:31:29;;;;;;;5.10;4.60;;;16.80;99.90;;;;;;4977082;28;20504;-82
2023/08/07 07:33:56;;;;;;;4.30;4.00;;;16.90;99.90;;;;;;4982552;28;20452;-82
2023/08/07 07:36:23;;;;;;;6.17;5.60;;;17.10;99.90;;;;;;4983780;28;20464;-82
2023/08/07 07:38:50;;;;;;;3.93;3.60;;;17.30;99.90;;;;;;4983093;28;20543;-80
2023/08/07 07:41:18;;;;;;;4.40;3.13;;;17.60;99.90;;;;;;4984009;28;20609;-81
2023/08/07 07:43:46;;;;;;;4.83;4.10;;;17.60;99.90;;;;;;4984041;28;20599;-81
2023/08/07 07:46:13;;;;;;;3.70;3.37;;;17.70;99.90;;;;;;4980149;28;20752;-80
2023/08/07 07:48:43;;;;;;;4.10;3.80;;;18.20;99.90;;;;;;4982674;28;20464;-78
2023/08/07 07:51:09;;;;;;;3.67;3.37;;;18.30;98.60;;;;;;4982320;28;20492;-79
2023/08/07 07:53:36;;;;;;;3.90;3.50;;;18.30;99.70;;;;;;4981376;28;20644;-81
2023/08/07 07:56:03;;;;;;;4.00;3.17;;;18.40;98.70;;;;;;4982654;28;20468;-82
2023/08/07 07:58:30;;;;;;;3.70;3.37;;;18.80;98.30;;;;;;4984706;28;20631;-81
2023/08/07 08:00:57;;;;;;;4.80;3.47;;;19.60;96.80;;;;;;4983854;28;20411;-78
2023/08/07 08:03:24;;;;;;;3.13;2.90;;;20.10;95.10;;;;;;4983385;28;20478;-79
2023/08/07 08:05:52;;;;;;;5.20;3.17;;;20.30;93.70;;;;;;4980891;28;20749;-79
2023/08/07 08:08:19;;;;;;;6.10;4.30;;;19.80;94.40;;;;;;4984084;28;20415;-79
2023/08/07 08:10:47;;;;;;;4.90;4.37;;;19.70;94.20;;;;;;4986147;28;20407;-78
2023/08/07 08:13:15;;;;;;;3.40;3.10;;;20.00;93.30;;;;;;4996220;28;20438;-79
2023/08/07 08:15:43;;;;;;;4.10;3.80;;;20.50;90.80;;;;;;4989464;28;20481;-76
2023/08/07 08:18:11;;;;;;;3.60;3.30;;;20.20;90.30;;;;;;4981857;28;20491;-78
2023/08/07 08:20:38;;;;;;;5.40;3.10;;;20.10;91.70;;;;;;4983692;28;20421;-78
2023/08/07 08:23:05;;;;;;;3.40;3.17;;;20.60;90.10;;;;;;4983829;28;20422;-81
2023/08/07 08:25:32;;;;;;;4.10;3.70;;;20.40;91.30;;;;;;4982612;28;20801;-78
2023/08/07 08:28:00;;;;;;;5.33;4.83;;;20.00;90.80;;;;;;4983932;28;20430;-81
2023/08/07 08:30:28;;;;;;;5.70;3.77;;;20.20;92.40;;;;;;4986108;28;20438;-78
2023/08/07 08:32:55;;;;;;;4.97;4.57;;;20.00;92.60;;;;;;4986120;28;20411;-77
2023/08/07 08:35:22;;;;;;;15.90;4.57;;;19.70;92.80;;;;;;4984966;28;20511;-76
2023/08/07 08:37:49;;;;;;;4.10;3.70;;;19.50;92.90;;;;;;4982781;28;20763;-79
2023/08/07 08:40:17;;;;;;;4.80;3.80;;;19.10;94.40;;;;;;4981717;28;20450;-78
2023/08/07 08:42:45;;;;;;;4.03;3.63;;;19.00;93.80;;;;;;4980558;28;20487;-77
2023/08/07 08:45:14;;;;;;;6.30;4.33;;;19.40;92.60;;;;;;4979335;28;20445;-78
2023/08/07 08:47:46;;;;;;;4.43;4.13;;;19.60;93.00;;;;;;4988186;28;20447;-79
2023/08/07 08:50:14;;;;;;;4.90;4.50;;;19.50;92.00;;;;;;4982504;28;20455;-78
2023/08/07 08:52:45;;;;;;;5.60;5.10;;;19.00;92.10;;;;;;4982995;28;20419;-82
2023/08/07 08:55:13;;;;;;;4.37;3.97;;;19.00;91.80;;;;;;4978524;28;20579;-79
2023/08/07 08:57:41;;;;;;;4.60;4.20;;;18.90;91.50;;;;;;4976676;28;20486;-78
2023/08/07 09:00:20;;;;;;;5.13;4.33;;;19.10;92.10;;;;;;4982663;28;20420;-79
2023/08/07 09:02:48;;;;;;;5.57;5.00;;;19.00;90.80;;;;;;4986706;28;20486;-79
2023/08/07 09:05:17;;;;;;;4.17;3.80;;;19.40;90.20;;;;;;4979770;28;20451;-77
2023/08/07 09:07:46;;;;;;;5.40;3.93;;;20.30;85.90;;;;;;4981288;28;20423;-78
2023/08/07 09:10:16;;;;;;;6.27;3.83;;;20.90;84.60;;;;;;4978564;28;20440;-79
2023/08/07 09:13:07;;;;;;;4.20;3.77;;;20.90;84.10;;;;;;4981559;28;20618;-79
2023/08/07 09:15:38;;;;;;;4.43;4.13;;;21.00;84.00;;;;;;4979650;28;20499;-79
2023/08/07 09:18:07;;;;;;;4.80;4.40;;;21.30;81.50;;;;;;4973998;28;20458;-78
2023/08/07 09:20:36;;;;;;;4.77;3.70;;;21.00;81.10;;;;;;4981796;28;20411;-80
2023/08/07 09:23:03;;;;;;;4.10;3.70;;;21.00;80.60;;;;;;4981653;28;20983;-80
2023/08/07 09:25:31;;;;;;;7.60;4.93;;;20.90;81.60;;;;;;4981697;28;20437;-78
2023/08/07 09:28:04;;;;;;;4.60;4.20;;;20.70;84.70;;;;;;4980048;28;20610;-79
2023/08/07 09:30:32;;;;;;;5.30;4.77;;;20.70;81.70;;;;;;4982106;28;20439;-78
2023/08/07 09:33:00;;;;;;;4.53;3.80;;;21.10;82.50;;;;;;4975523;28;20789;-77
2023/08/07 09:35:30;;;;;;;4.07;3.67;;;21.70;78.30;;;;;;4981016;28;20430;-80
2023/08/07 09:37:57;;;;;;;8.03;3.30;;;21.30;77.00;;;;;;4980584;28;20705;-77
2023/08/07 09:40:25;;;;;;;3.50;3.20;;;21.10;76.60;;;;;;4982633;28;20419;-77
2023/08/07 09:42:53;;;;;;;8.00;4.20;;;20.70;78.40;;;;;;4979223;28;21138;-82
2023/08/07 09:45:23;;;;;;;3.60;3.30;;;21.00;83.50;;;;;;4982864;28;20759;-78
2023/08/07 09:47:58;;;;;;;3.47;3.23;;;21.10;76.60;;;;;;4986587;28;20422;-78
2023/08/07 09:50:26;;;;;;;5.67;3.30;;;21.40;75.60;;;;;;5001831;28;20458;-80
2023/08/07 09:52:57;;;;;;;4.67;3.07;;;21.70;70.90;;;;;;4996658;28;20410;-78
2023/08/07 09:55:25;;;;;;;5.40;2.97;;;21.50;72.10;;;;;;4993993;28;20411;-81
2023/08/07 09:57:53;;;;;;;3.10;2.90;;;20.80;69.50;;;;;;4985186;28;20514;-79
2023/08/07 10:00:21;;;;;;;3.70;2.93;;;20.50;70.20;;;;;;4981820;28;20466;-80
2023/08/07 10:02:49;;;;;;;4.07;2.90;;;20.70;71.70;;;;;;4986402;28;20414;-78
2023/08/07 10:05:17;;;;;;;2.90;2.70;;;20.80;70.50;;;;;;4982037;28;20431;-81
2023/08/07 10:07:46;;;;;;;3.10;2.80;;;20.80;70.60;;;;;;4981694;28;20414;-79
2023/08/07 10:10:14;;;;;;;2.90;2.40;;;21.00;71.50;;;;;;4981823;28;20445;-82
2023/08/07 10:12:41;;;;;;;3.57;3.27;;;21.10;69.30;;;;;;4980751;28;20437;-78
2023/08/07 10:15:09;;;;;;;2.67;2.47;;;20.90;71.00;;;;;;4989442;28;20479;-79
2023/08/07 10:17:36;;;;;;;3.30;3.00;;;20.70;70.80;;;;;;4979604;28;20490;-80
2023/08/07 10:20:07;;;;;;;2.80;2.50;;;20.70;71.10;;;;;;4980665;28;20457;-80
2023/08/07 10:22:37;;;;;;;6.10;3.30;;;20.40;72.90;;;;;;4981907;28;20464;-80
2023/08/07 10:25:06;;;;;;;2.93;2.73;;;20.60;72.30;;;;;;4975698;28;20521;-77
2023/08/07 10:27:36;;;;;;;2.93;2.70;;;20.70;71.30;;;;;;4983597;28;20472;-77
2023/08/07 10:30:07;;;;;;;6.00;3.07;;;21.00;69.20;;;;;;4988838;28;20774;-79
2023/08/07 10:32:35;;;;;;;3.27;3.00;;;21.10;70.70;;;;;;4992257;28;20426;-81
2023/08/07 10:35:04;;;;;;;3.27;2.97;;;20.90;68.70;;;;;;4992817;28;20407;-79
2023/08/07 10:37:40;;;;;;;5.30;2.73;;;20.80;70.90;;;;;;4981453;28;20440;-81
2023/08/07 10:40:09;;;;;;;7.03;2.67;;;20.90;69.90;;;;;;4982979;28;20413;-79
2023/08/07 10:42:54;;;;;;;2.80;2.60;;;20.70;72.30;;;;;;4979111;28;20420;-79
2023/08/07 10:45:23;;;;;;;5.20;2.67;;;20.90;72.50;;;;;;4987421;28;20407;-80
2023/08/07 10:48:09;;;;;;;3.00;2.80;;;21.20;70.00;;;;;;4986455;28;20440;-80
2023/08/07 10:50:57;;;;;;;3.43;3.13;;;21.10;68.00;;;;;;4984362;28;20607;-80
2023/08/07 10:53:36;;;;;;;6.50;3.27;;;21.30;67.70;;;;;;4978910;28;20759;-82
2023/08/07 10:56:11;;;;;;;3.20;2.90;;;21.50;69.40;;;;;;4985082;28;20426;-81
2023/08/07 10:58:39;;;;;;;3.07;2.87;;;21.50;69.60;;;;;;4986715;28;20446;-84
2023/08/07 11:01:22;;;;;;;3.20;2.90;;;21.20;68.10;;;;;;4989381;28;20689;-82
2023/08/07 11:03:53;;;;;;;3.13;2.70;;;21.10;67.40;;;;;;4984352;28;20437;-81
2023/08/07 11:06:31;;;;;;;3.80;2.83;;;20.80;67.30;;;;;;4985776;28;20433;-81
2023/08/07 11:08:59;;;;;;;3.60;2.70;;;20.60;67.90;;;;;;4984699;28;20418;-83
2023/08/07 11:11:35;;;;;;;3.30;3.00;;;20.40;69.10;;;;;;4984887;28;20439;-78
2023/08/07 11:14:01;;;;;;;3.73;2.57;;;20.20;69.00;;;;;;4983997;28;20470;-78
2023/08/07 11:16:33;;;;;;;3.60;3.27;;;20.30;69.60;;;;;;4988783;28;20423;-81
2023/08/07 11:19:00;;;;;;;4.03;3.67;;;20.50;69.70;;;;;;4984444;28;20875;-79
2023/08/07 11:21:28;;;;;;;4.17;3.77;;;20.40;70.30;;;;;;4977233;28;20432;-82
2023/08/07 11:24:00;;;;;;;4.03;3.03;;;20.10;74.30;;;;;;4985910;28;20426;-81
2023/08/07 11:26:30;;;;;;;6.10;3.37;;;19.70;73.40;;;;;;4984904;28;20619;-82
2023/08/07 11:29:00;;;;;;;5.70;3.37;;;19.40;76.10;;;;;;4979536;28;20548;-83
2023/08/07 11:31:27;;;;;;;3.33;3.10;;;19.30;77.40;;;;;;4984095;28;20632;-78
2023/08/07 11:33:57;;;;;;;3.17;2.97;;;19.20;77.50;;;;;;4983146;28;20486;-79
2023/08/07 11:36:25;;;;;;;3.70;3.40;;;19.40;78.80;;;;;;4990085;28;20427;-80
2023/08/07 11:38:54;;;;;;;5.10;3.23;;;19.60;77.10;;;;;;4986390;28;20458;-80
2023/08/07 11:41:21;;;;;;;4.10;3.17;;;19.90;76.30;;;;;;4983217;28;20450;-81
2023/08/07 11:43:48;;;;;;;3.40;3.20;;;20.50;78.20;;;;;;4981039;28;20463;-80
2023/08/07 11:46:16;;;;;;;3.70;3.10;;;21.00;74.80;;;;;;4983958;28;20450;-79
2023/08/07 11:48:44;;;;;;;3.77;2.67;;;21.40;68.80;;;;;;4982312;28;20456;-81
2023/08/07 11:51:11;;;;;;;3.83;2.73;;;21.50;68.50;;;;;;4983541;28;20431;-82
2023/08/07 11:53:41;;;;;;;3.03;2.73;;;21.40;67.60;;;;;;4984026;28;20467;-81
2023/08/07 11:56:10;;;;;;;3.60;3.13;;;21.20;69.60;;;;;;4983408;28;20551;-78
2023/08/07 11:58:45;;;;;;;2.83;2.60;;;21.00;69.70;;;;;;4982199;28;20483;-79
2023/08/07 12:01:19;;;;;;;8.10;2.80;;;21.00;70.20;;;;;;4995215;28;20450;-83
2023/08/07 12:03:57;;;;;;;3.33;3.13;;;21.30;72.50;;;;;;4987560;28;20778;-83
2023/08/07 12:06:26;;;;;;;7.67;2.97;;;21.30;66.80;;;;;;4984510;28;20484;-81
2023/08/07 12:08:57;;;;;;;2.63;2.43;;;21.10;67.70;;;;;;4983937;28;20451;-78
2023/08/07 12:11:24;;;;;;;4.60;3.53;;;20.70;69.40;;;;;;4983831;28;20486;-79
2023/08/07 12:13:51;;;;;;;4.37;3.00;;;20.20;75.30;;;;;;4982787;28;20421;-80
2023/08/07 12:16:18;;;;;;;4.10;3.70;;;20.20;75.20;;;;;;4986161;28;20507;-82
2023/08/07 12:18:46;;;;;;;3.27;3.07;;;20.10;76.60;;;;;;4983498;28;20474;-80
2023/08/07 12:21:25;;;;;;;5.30;2.33;;;19.80;76.80;;;;;;4983918;28;20715;-80
2023/08/07 12:23:55;;;;;;;10.50;3.50;;;19.50;79.00;;;;;;4982755;28;20447;-81
2023/08/07 12:26:22;;;;;;;3.43;3.00;;;19.50;79.70;;;;;;4982854;28;20479;-79
2023/08/07 12:28:52;;;;;;;3.20;2.90;;;19.50;80.40;;;;;;4981365;28;20451;-83
2023/08/07 12:31:20;;;;;;;3.10;2.90;;;19.30;81.70;;;;;;4979664;28;20430;-80
2023/08/07 12:33:47;;;;;;;3.50;3.30;;;19.70;80.00;;;;;;4982443;28;20757;-80
2023/08/07 12:36:14;;;;;;;4.60;3.43;;;19.70;79.80;;;;;;4982537;28;20471;-78
2023/08/07 12:38:44;;;;;;;3.20;2.83;;;19.90;80.00;;;;;;4981065;28;20829;-82
2023/08/07 12:41:11;;;;;;;3.07;2.77;;;19.80;78.00;;;;;;4982630;28;20468;-80
2023/08/07 12:43:41;;;;;;;2.97;2.60;;;19.90;79.10;;;;;;4974661;28;20415;-81
2023/08/07 12:46:09;;;;;;;3.17;2.97;;;19.90;78.80;;;;;;4981830;28;20419;-81
2023/08/07 12:48:39;;;;;;;2.90;2.70;;;20.20;77.20;;;;;;4979481;28;20745;-82
2023/08/07 12:51:06;;;;;;;3.20;3.00;;;20.20;76.80;;;;;;4982312;28;20467;-79
2023/08/07 12:53:33;;;;;;;3.20;2.90;;;20.40;76.20;;;;;;4982987;28;20415;-81